createdAt,value
2022-12-03T00:01:07.782Z,3.80
2022-12-03T00:03:38.790Z,3.80
2022-12-03T00:06:09.744Z,3.80
2022-12-03T00:08:40.774Z,3.80
2022-12-03T00:11:11.643Z,3.80
2022-12-03T00:13:42.492Z,3.60
2022-12-03T00:16:13.474Z,3.60
2022-12-03T00:18:44.423Z,3.50
2022-12-03T00:21:15.310Z,3.60
2022-12-03T00:23:46.195Z,3.60
2022-12-03T00:26:17.024Z,3.70
2022-12-03T00:28:47.921Z,3.70
2022-12-03T00:31:21.426Z,3.60
2022-12-03T00:33:53.101Z,3.60
2022-12-03T00:36:23.932Z,3.50
2022-12-03T00:38:54.880Z,3.60
2022-12-03T00:41:25.753Z,3.50
2022-12-03T00:43:57.759Z,3.60
2022-12-03T00:46:28.687Z,3.60
2022-12-03T00:48:59.681Z,3.60
2022-12-03T00:51:30.573Z,3.60
2022-12-03T00:54:01.619Z,3.70
2022-12-03T00:56:32.494Z,3.70
2022-12-03T00:59:03.482Z,3.70
2022-12-03T01:01:34.397Z,3.80
2022-12-03T01:04:05.565Z,3.80
2022-12-03T01:06:36.978Z,3.80
2022-12-03T01:09:07.983Z,3.90
2022-12-03T01:11:38.923Z,3.90
2022-12-03T01:14:16.746Z,4.00
2022-12-03T01:16:48.309Z,4.00
2022-12-03T01:19:20.892Z,4.00
2022-12-03T01:21:52.437Z,4.00
2022-12-03T01:24:23.417Z,4.10
2022-12-03T01:26:55.876Z,4.10
2022-12-03T01:29:27.174Z,4.20
2022-12-03T01:32:19.759Z,4.20
2022-12-03T01:34:54.411Z,4.20
2022-12-03T01:37:27.356Z,4.20
2022-12-03T01:40:01.292Z,4.20
2022-12-03T01:42:36.522Z,4.20
2022-12-03T01:45:11.957Z,4.20
2022-12-03T01:47:42.937Z,4.30
2022-12-03T01:50:28.664Z,4.30
2022-12-03T01:53:02.217Z,4.40
2022-12-03T01:55:33.698Z,4.50
2022-12-03T01:58:05.000Z,4.40
2022-12-03T02:00:36.198Z,4.40
2022-12-03T02:03:19.298Z,4.40
2022-12-03T02:05:50.582Z,4.50
2022-12-03T02:08:35.407Z,4.40
2022-12-03T02:11:35.892Z,4.50
2022-12-03T02:14:11.765Z,4.40
2022-12-03T02:16:43.986Z,4.40
2022-12-03T02:19:31.830Z,4.50
2022-12-03T02:22:36.840Z,4.50
2022-12-03T02:25:32.021Z,4.50
2022-12-03T02:28:06.511Z,4.60
2022-12-03T02:30:37.620Z,4.50
2022-12-03T02:33:08.565Z,4.40
2022-12-03T02:35:39.972Z,4.40
2022-12-03T02:38:27.139Z,4.30
2022-12-03T02:41:03.845Z,4.30
2022-12-03T02:43:35.155Z,4.40
2022-12-03T02:46:08.685Z,4.40
2022-12-03T02:48:41.917Z,4.40
2022-12-03T02:51:12.880Z,4.40
2022-12-03T02:53:47.607Z,4.50
2022-12-03T02:56:23.791Z,4.50
2022-12-03T02:58:58.889Z,4.50
2022-12-03T03:01:44.988Z,4.60
2022-12-03T03:04:16.094Z,4.60
2022-12-03T03:06:46.987Z,4.60
2022-12-03T03:09:18.577Z,4.60
2022-12-03T03:11:49.473Z,4.60
2022-12-03T03:14:20.411Z,4.60
2022-12-03T03:16:56.205Z,4.60
2022-12-03T03:19:27.691Z,4.50
2022-12-03T03:21:58.704Z,4.40
2022-12-03T03:24:29.770Z,4.50
2022-12-03T03:27:00.655Z,4.60
2022-12-03T03:29:33.075Z,4.60
2022-12-03T03:32:07.833Z,4.50
2022-12-03T03:34:38.844Z,4.50
2022-12-03T03:37:09.792Z,4.60
2022-12-03T03:39:40.754Z,4.60
2022-12-03T03:42:11.900Z,4.60
2022-12-03T03:44:42.924Z,4.50
2022-12-03T03:47:14.664Z,4.60
2022-12-03T03:49:47.926Z,4.60
2022-12-03T03:52:20.009Z,4.70
2022-12-03T03:54:51.244Z,4.70
2022-12-03T03:57:22.356Z,4.70
2022-12-03T03:59:53.245Z,4.60
2022-12-03T04:02:26.918Z,4.70
2022-12-03T04:04:57.886Z,4.80
2022-12-03T04:07:28.916Z,4.70
2022-12-03T04:09:59.869Z,4.70
2022-12-03T04:12:49.144Z,4.80
2022-12-03T04:15:20.002Z,4.80
2022-12-03T04:18:10.336Z,4.80
2022-12-03T04:20:41.356Z,4.80
2022-12-03T04:23:12.265Z,4.80
2022-12-03T04:26:01.472Z,4.80
2022-12-03T04:28:50.638Z,4.80
2022-12-03T04:31:40.372Z,4.80
2022-12-03T04:34:30.254Z,4.80
2022-12-03T04:37:01.161Z,4.80
2022-12-03T04:39:32.108Z,4.70
2022-12-03T04:42:03.928Z,4.80
2022-12-03T04:44:38.129Z,4.80
2022-12-03T04:47:16.041Z,4.70
2022-12-03T04:49:50.300Z,4.70
2022-12-03T04:52:21.549Z,4.70
2022-12-03T04:54:52.788Z,4.70
2022-12-03T04:57:23.918Z,4.70
2022-12-03T04:59:54.797Z,4.70
2022-12-03T05:02:25.745Z,4.70
2022-12-03T05:04:56.703Z,4.70
2022-12-03T05:07:27.771Z,4.60
2022-12-03T05:09:58.683Z,4.60
2022-12-03T05:12:29.590Z,4.60
2022-12-03T05:15:00.686Z,4.60
2022-12-03T05:17:31.742Z,4.60
2022-12-03T05:20:21.373Z,4.50
2022-12-03T05:22:52.301Z,4.50
2022-12-03T05:25:23.169Z,4.50
2022-12-03T05:27:54.268Z,4.50
2022-12-03T05:30:25.500Z,4.60
2022-12-03T05:32:56.433Z,4.50
2022-12-03T05:35:27.684Z,4.60
2022-12-03T05:37:58.636Z,4.60
2022-12-03T05:40:29.567Z,4.60
2022-12-03T05:43:03.969Z,4.60
2022-12-03T05:45:40.887Z,4.60
2022-12-03T05:48:14.646Z,4.60
2022-12-03T05:50:46.868Z,4.50
2022-12-03T05:53:18.005Z,4.40
2022-12-03T05:55:48.877Z,4.40
2022-12-03T05:58:19.759Z,4.30
2022-12-03T06:00:50.624Z,4.40
2022-12-03T06:03:21.669Z,4.40
2022-12-03T06:05:52.708Z,4.50
2022-12-03T06:08:23.598Z,4.50
2022-12-03T06:10:54.509Z,4.40
2022-12-03T06:13:25.456Z,4.40
2022-12-03T06:15:56.380Z,4.40
2022-12-03T06:18:27.313Z,4.50
2022-12-03T06:20:58.189Z,4.40
2022-12-03T06:23:29.174Z,4.40
2022-12-03T06:26:00.075Z,4.50
2022-12-03T06:28:30.947Z,4.60
2022-12-03T06:31:02.243Z,4.60
2022-12-03T06:33:33.211Z,4.60
2022-12-03T06:36:04.662Z,4.60
2022-12-03T06:38:35.570Z,4.60
2022-12-03T06:41:06.421Z,4.70
2022-12-03T06:43:37.297Z,4.60
2022-12-03T06:46:08.206Z,4.70
2022-12-03T06:48:39.102Z,4.60
2022-12-03T06:51:09.985Z,4.60
2022-12-03T06:53:40.877Z,4.60
2022-12-03T06:56:11.754Z,4.60
2022-12-03T06:58:42.701Z,4.60
2022-12-03T07:01:13.712Z,4.70
2022-12-03T07:03:44.610Z,4.60
2022-12-03T07:06:15.694Z,4.60
2022-12-03T07:08:46.578Z,4.60
2022-12-03T07:11:33.048Z,4.70
2022-12-03T07:14:06.304Z,4.70
2022-12-03T07:16:38.195Z,4.70
2022-12-03T07:19:10.328Z,4.70
2022-12-03T07:21:41.685Z,4.70
2022-12-03T07:24:12.604Z,4.70
2022-12-03T07:26:43.541Z,4.60
2022-12-03T07:29:14.490Z,4.60
2022-12-03T07:31:45.449Z,4.60
2022-12-03T07:34:16.566Z,4.60
2022-12-03T07:36:47.662Z,4.60
2022-12-03T07:39:18.662Z,4.60
2022-12-03T07:41:49.890Z,4.60
2022-12-03T07:44:20.850Z,4.60
2022-12-03T07:46:52.022Z,4.60
2022-12-03T07:49:23.022Z,4.50
2022-12-03T07:51:54.456Z,4.60
2022-12-03T07:54:26.111Z,4.70
2022-12-03T07:57:01.439Z,4.70
2022-12-03T07:59:35.186Z,4.80
2022-12-03T08:02:06.696Z,4.70
2022-12-03T08:04:37.627Z,4.70
2022-12-03T08:07:08.486Z,4.70
2022-12-03T08:09:41.530Z,4.80
2022-12-03T08:12:19.489Z,4.80
2022-12-03T08:14:51.275Z,4.80
2022-12-03T08:17:22.960Z,4.80
2022-12-03T08:19:53.893Z,4.80
2022-12-03T08:22:24.827Z,4.80
2022-12-03T08:24:56.309Z,4.80
2022-12-03T08:27:27.328Z,4.80
2022-12-03T08:30:03.967Z,4.90
2022-12-03T08:32:34.923Z,4.90
2022-12-03T08:35:20.148Z,4.90
2022-12-03T08:38:05.895Z,4.80
2022-12-03T08:40:42.692Z,4.80
2022-12-03T08:43:41.971Z,4.80
2022-12-03T08:46:19.504Z,4.80
2022-12-03T08:48:50.502Z,4.80
2022-12-03T08:51:27.142Z,4.80
2022-12-03T08:54:13.561Z,4.80
2022-12-03T08:56:44.898Z,4.80
2022-12-03T08:59:29.443Z,4.80
2022-12-03T09:02:00.424Z,4.80
2022-12-03T09:04:46.315Z,4.70
2022-12-03T09:07:17.165Z,4.80
2022-12-03T09:09:48.256Z,4.80
2022-12-03T09:12:19.136Z,4.80
2022-12-03T09:14:50.144Z,4.80
2022-12-03T09:17:20.982Z,4.80
2022-12-03T09:19:51.947Z,4.70
2022-12-03T09:22:22.988Z,4.80
2022-12-03T09:24:54.191Z,4.80
2022-12-03T09:27:25.395Z,4.80
2022-12-03T09:29:56.256Z,4.80
2022-12-03T09:32:27.233Z,4.70
2022-12-03T09:34:58.195Z,4.80
2022-12-03T09:37:29.088Z,4.80
2022-12-03T09:40:00.031Z,4.80
2022-12-03T09:42:30.999Z,4.80
2022-12-03T09:45:04.138Z,4.90
2022-12-03T09:47:35.068Z,4.90
2022-12-03T09:50:06.940Z,5.00
2022-12-03T09:52:37.879Z,5.00
2022-12-03T09:55:19.724Z,5.10
2022-12-03T09:57:56.371Z,5.00
2022-12-03T10:00:30.843Z,5.00
2022-12-03T10:03:05.022Z,5.10
2022-12-03T10:05:36.057Z,5.10
2022-12-03T10:08:20.687Z,5.00
2022-12-03T10:10:56.494Z,5.00
2022-12-03T10:13:30.580Z,5.10
2022-12-03T10:16:01.610Z,5.10
2022-12-03T10:18:41.290Z,6.20
2022-12-03T10:21:29.396Z,7.20
2022-12-03T10:24:29.034Z,6.80
2022-12-03T10:27:02.792Z,6.40
2022-12-03T10:29:45.723Z,6.10
2022-12-03T10:32:16.651Z,5.90
2022-12-03T10:34:47.571Z,5.70
2022-12-03T10:37:21.540Z,5.50
2022-12-03T10:40:02.466Z,5.40
2022-12-03T10:42:37.040Z,5.10
2022-12-03T10:45:23.681Z,5.20
2022-12-03T10:48:17.040Z,5.10
2022-12-03T10:50:52.235Z,5.10
2022-12-03T10:53:29.732Z,5.00
2022-12-03T10:56:05.331Z,5.00
2022-12-03T10:58:39.297Z,5.00
2022-12-03T11:01:25.503Z,5.00
2022-12-03T11:04:04.737Z,5.00
2022-12-03T11:06:35.962Z,6.00
2022-12-03T11:09:27.121Z,5.70
2022-12-03T11:12:06.563Z,5.40
2022-12-03T11:14:56.499Z,5.50
2022-12-03T11:17:50.969Z,6.10
2022-12-03T11:20:24.879Z,5.80
2022-12-03T11:22:58.310Z,5.60
2022-12-03T11:25:29.249Z,5.30
2022-12-03T11:28:14.954Z,5.30
2022-12-03T11:31:02.375Z,5.20
2022-12-03T11:33:38.459Z,5.20
2022-12-03T11:36:12.997Z,5.10
2022-12-03T11:38:52.931Z,5.10
2022-12-03T11:41:36.383Z,5.10
2022-12-03T11:44:31.916Z,5.00
2022-12-03T11:47:14.572Z,5.00
2022-12-03T11:49:49.021Z,4.90
2022-12-03T11:52:43.062Z,4.60
2022-12-03T11:55:36.607Z,4.70
2022-12-03T11:58:26.712Z,4.70
2022-12-03T12:01:00.518Z,5.50
2022-12-03T12:03:46.503Z,6.00
2022-12-03T12:06:20.860Z,5.60
2022-12-03T12:08:51.683Z,5.40
2022-12-03T12:11:37.342Z,5.20
2022-12-03T12:14:13.236Z,5.30
2022-12-03T12:16:53.033Z,5.20
2022-12-03T12:19:40.677Z,5.00
2022-12-03T12:22:26.373Z,4.90
2022-12-03T12:25:05.822Z,4.80
2022-12-03T12:27:45.494Z,4.80
2022-12-03T12:30:20.266Z,4.70
2022-12-03T12:32:58.232Z,4.60
2022-12-03T12:35:33.975Z,4.70
2022-12-03T12:38:09.446Z,4.70
2022-12-03T12:40:45.551Z,4.60
2022-12-03T12:43:27.447Z,4.60
2022-12-03T12:46:46.181Z,4.60
2022-12-03T12:49:26.921Z,4.70
2022-12-03T12:51:57.822Z,4.80
2022-12-03T12:54:28.713Z,4.80
2022-12-03T12:56:59.659Z,4.80
2022-12-03T12:59:30.543Z,4.80
2022-12-03T13:02:04.491Z,4.70
2022-12-03T13:04:40.245Z,4.60
2022-12-03T13:07:11.175Z,4.70
2022-12-03T13:09:42.009Z,4.60
2022-12-03T13:12:22.617Z,4.70
2022-12-03T13:14:58.804Z,4.70
2022-12-03T13:17:29.714Z,4.70
2022-12-03T13:20:07.587Z,4.70
2022-12-03T13:22:38.866Z,4.70
2022-12-03T13:25:59.343Z,4.70
2022-12-03T13:28:30.775Z,4.70
2022-12-03T13:31:22.961Z,4.70
2022-12-03T13:33:56.981Z,4.80
2022-12-03T13:36:40.611Z,4.80
2022-12-03T13:39:32.894Z,4.80
2022-12-03T13:42:39.019Z,4.80
2022-12-03T13:45:36.074Z,4.70
2022-12-03T13:48:26.850Z,4.70
2022-12-03T13:51:01.964Z,4.50
2022-12-03T13:53:42.055Z,4.50
2022-12-03T13:56:29.146Z,4.50
2022-12-03T13:59:01.466Z,4.50
2022-12-03T14:01:32.762Z,4.50
2022-12-03T14:04:04.778Z,4.50
2022-12-03T14:06:35.725Z,4.60
2022-12-03T14:09:06.710Z,4.60
2022-12-03T14:11:56.101Z,4.60
2022-12-03T14:14:27.024Z,4.60
2022-12-03T14:17:00.093Z,4.60
2022-12-03T14:19:31.584Z,4.50
2022-12-03T14:22:02.723Z,4.50
2022-12-03T14:24:33.659Z,4.50
2022-12-03T14:27:04.586Z,4.40
2022-12-03T14:29:35.753Z,4.40
2022-12-03T14:32:06.726Z,4.30
2022-12-03T14:34:37.753Z,4.30
2022-12-03T14:37:08.631Z,4.40
2022-12-03T14:39:41.400Z,4.50
2022-12-03T14:42:16.430Z,4.40
2022-12-03T14:44:51.853Z,4.50
2022-12-03T14:47:22.873Z,4.40
2022-12-03T14:49:54.591Z,4.30
2022-12-03T14:52:25.695Z,4.30
2022-12-03T14:54:56.622Z,4.50
2022-12-03T14:57:27.575Z,4.40
2022-12-03T14:59:58.452Z,4.50
2022-12-03T15:02:30.369Z,4.40
2022-12-03T15:05:01.453Z,4.40
2022-12-03T15:07:32.430Z,4.40
2022-12-03T15:10:03.763Z,4.30
2022-12-03T15:12:34.832Z,4.30
2022-12-03T15:15:06.572Z,4.20
2022-12-03T15:17:37.516Z,4.20
2022-12-03T15:20:09.257Z,4.20
2022-12-03T15:22:40.184Z,4.20
2022-12-03T15:25:11.119Z,4.20
2022-12-03T15:27:42.072Z,4.30
2022-12-03T15:30:13.115Z,4.10
2022-12-03T15:32:46.924Z,4.20
2022-12-03T15:35:18.700Z,4.20
2022-12-03T15:37:49.540Z,4.20
2022-12-03T15:40:20.767Z,4.30
2022-12-03T15:42:51.924Z,4.20
2022-12-03T15:45:22.935Z,4.20
2022-12-03T15:47:53.862Z,4.20
2022-12-03T15:50:25.231Z,4.20
2022-12-03T15:52:56.125Z,4.20
2022-12-03T15:55:27.044Z,4.20
2022-12-03T15:57:57.911Z,4.20
2022-12-03T16:00:28.812Z,4.20
2022-12-03T16:03:00.228Z,4.20
2022-12-03T16:05:31.223Z,4.20
2022-12-03T16:08:02.137Z,4.20
2022-12-03T16:10:33.126Z,4.20
2022-12-03T16:13:04.028Z,4.10
2022-12-03T16:15:35.545Z,4.10
2022-12-03T16:18:06.516Z,4.10
2022-12-03T16:20:37.389Z,4.10
2022-12-03T16:23:08.409Z,4.10
2022-12-03T16:25:39.338Z,4.00
2022-12-03T16:28:10.301Z,4.00
2022-12-03T16:30:41.432Z,4.00
2022-12-03T16:33:12.353Z,4.00
2022-12-03T16:35:43.244Z,4.00
2022-12-03T16:38:14.100Z,4.10
2022-12-03T16:40:45.022Z,4.00
2022-12-03T16:43:16.031Z,4.00
2022-12-03T16:46:02.980Z,4.10
2022-12-03T16:48:33.968Z,4.00
2022-12-03T16:51:05.114Z,4.10
2022-12-03T16:53:36.460Z,4.10
2022-12-03T16:56:11.615Z,4.10
2022-12-03T16:58:42.836Z,4.20
2022-12-03T17:01:13.847Z,4.20
2022-12-03T17:03:44.816Z,4.10
2022-12-03T17:06:15.887Z,4.10
2022-12-03T17:08:49.573Z,4.00
2022-12-03T17:11:20.981Z,4.00
2022-12-03T17:13:51.869Z,4.00
2022-12-03T17:16:22.791Z,4.00
2022-12-03T17:18:53.740Z,4.00
2022-12-03T17:21:24.661Z,4.00
2022-12-03T17:23:55.560Z,4.00
2022-12-03T17:26:26.472Z,4.40
2022-12-03T17:28:57.376Z,4.30
2022-12-03T17:31:28.373Z,4.20
2022-12-03T17:33:59.386Z,4.20
2022-12-03T17:36:30.254Z,4.10
2022-12-03T17:39:01.388Z,4.10
2022-12-03T17:41:32.241Z,4.10
2022-12-03T17:44:09.792Z,4.00
2022-12-03T17:46:41.238Z,3.90
2022-12-03T17:49:12.172Z,3.90
2022-12-03T17:51:43.016Z,3.90
2022-12-03T17:54:14.001Z,3.80
2022-12-03T17:56:44.910Z,3.80
2022-12-03T17:59:16.410Z,3.80
2022-12-03T18:01:47.854Z,3.80
2022-12-03T18:04:18.828Z,3.80
2022-12-03T18:06:49.779Z,3.80
2022-12-03T18:09:22.662Z,3.70
2022-12-03T18:11:53.590Z,3.70
2022-12-03T18:14:24.590Z,3.70
2022-12-03T18:17:04.376Z,3.80
2022-12-03T18:19:35.269Z,3.80
2022-12-03T18:22:06.231Z,3.80
2022-12-03T18:24:45.047Z,3.80
2022-12-03T18:27:17.338Z,3.80
2022-12-03T18:29:48.399Z,3.80
2022-12-03T18:32:29.869Z,3.80
2022-12-03T18:35:01.191Z,3.90
2022-12-03T18:37:35.139Z,3.90
2022-12-03T18:40:32.892Z,3.90
2022-12-03T18:43:14.271Z,3.90
2022-12-03T18:45:46.423Z,3.90
2022-12-03T18:48:19.899Z,3.90
2022-12-03T18:50:50.863Z,3.90
2022-12-03T18:53:21.882Z,4.00
2022-12-03T18:55:52.816Z,3.90
2022-12-03T18:58:28.127Z,4.00
2022-12-03T19:00:59.148Z,3.90
2022-12-03T19:03:30.507Z,4.00
2022-12-03T19:06:01.484Z,4.00
2022-12-03T19:08:32.346Z,4.00
2022-12-03T19:11:06.071Z,4.00
2022-12-03T19:13:41.253Z,4.00
2022-12-03T19:16:13.140Z,3.90
2022-12-03T19:18:44.741Z,3.90
2022-12-03T19:21:17.114Z,3.90
2022-12-03T19:24:22.202Z,3.90
2022-12-03T19:26:39.525Z,3.90
2022-12-03T19:29:13.541Z,3.80
2022-12-03T19:31:44.471Z,3.80
2022-12-03T19:34:16.026Z,3.90
2022-12-03T19:36:47.926Z,3.80
2022-12-03T19:39:19.098Z,3.80
2022-12-03T19:41:50.128Z,3.80
2022-12-03T19:44:21.032Z,3.80
2022-12-03T19:46:55.034Z,3.70
2022-12-03T19:49:28.785Z,3.80
2022-12-03T19:51:59.652Z,3.80
2022-12-03T19:54:30.522Z,3.80
2022-12-03T19:57:03.719Z,3.70
2022-12-03T19:59:37.070Z,3.70
2022-12-03T20:02:12.419Z,3.80
2022-12-03T20:04:43.421Z,3.80
2022-12-03T20:07:14.841Z,3.80
2022-12-03T20:09:45.740Z,3.70
2022-12-03T20:12:19.397Z,3.70
2022-12-03T20:14:51.682Z,3.60
2022-12-03T20:17:22.712Z,3.70
2022-12-03T20:19:53.835Z,3.70
2022-12-03T20:22:24.954Z,3.70
2022-12-03T20:24:55.849Z,3.70
2022-12-03T20:27:26.741Z,3.70
2022-12-03T20:29:57.642Z,3.70
2022-12-03T20:32:28.705Z,3.60
2022-12-03T20:35:01.964Z,3.50
2022-12-03T20:37:32.850Z,3.50
2022-12-03T20:40:04.806Z,3.50
2022-12-03T20:42:38.256Z,3.60
2022-12-03T20:45:10.021Z,3.60
2022-12-03T20:47:40.923Z,3.60
2022-12-03T20:50:20.877Z,3.60
2022-12-03T20:53:09.716Z,3.60
2022-12-03T20:55:42.618Z,3.60
2022-12-03T20:58:13.557Z,3.60
2022-12-03T21:00:44.506Z,3.60
2022-12-03T21:03:18.308Z,3.60
2022-12-03T21:05:49.606Z,3.70
2022-12-03T21:08:39.284Z,3.70
2022-12-03T21:11:18.219Z,3.70
2022-12-03T21:13:49.165Z,3.70
2022-12-03T21:16:45.604Z,3.80
2022-12-03T21:19:18.351Z,3.70
2022-12-03T21:21:49.494Z,3.60
2022-12-03T21:24:20.876Z,3.50
2022-12-03T21:26:51.852Z,3.60
2022-12-03T21:29:23.239Z,3.70
2022-12-03T21:31:54.197Z,3.60
2022-12-03T21:34:25.232Z,3.60
2022-12-03T21:36:56.205Z,3.70
2022-12-03T21:39:30.027Z,3.70
2022-12-03T21:42:34.289Z,3.70
2022-12-03T21:45:00.851Z,3.80
2022-12-03T21:47:36.879Z,3.70
2022-12-03T21:50:11.580Z,3.70
2022-12-03T21:52:42.654Z,3.70
2022-12-03T21:55:13.537Z,3.70
2022-12-03T21:57:44.455Z,3.70
2022-12-03T22:00:15.859Z,3.70
2022-12-03T22:02:46.808Z,3.70
2022-12-03T22:05:17.972Z,3.80
2022-12-03T22:07:49.215Z,3.80
2022-12-03T22:10:20.322Z,3.80
2022-12-03T22:12:54.000Z,3.70
2022-12-03T22:15:24.974Z,3.70
2022-12-03T22:17:55.843Z,3.70
2022-12-03T22:20:27.414Z,3.70
2022-12-03T22:22:58.272Z,3.70
2022-12-03T22:25:36.445Z,3.70
2022-12-03T22:28:07.300Z,3.70
2022-12-03T22:30:40.303Z,3.70
2022-12-03T22:33:11.208Z,3.70
2022-12-03T22:36:02.555Z,3.70
2022-12-03T22:38:36.301Z,3.70
2022-12-03T22:41:12.629Z,3.70
2022-12-03T22:43:43.863Z,3.70
2022-12-03T22:46:15.772Z,3.60
2022-12-03T22:48:47.283Z,3.70
2022-12-03T22:51:24.335Z,3.80
2022-12-03T22:53:57.589Z,3.90
2022-12-03T22:56:30.531Z,4.00
2022-12-03T22:59:01.730Z,4.00
2022-12-03T23:01:36.729Z,4.00
2022-12-03T23:04:11.344Z,3.90
2022-12-03T23:06:43.565Z,3.90
2022-12-03T23:09:14.697Z,3.90
2022-12-03T23:11:46.277Z,3.80
2022-12-03T23:14:17.154Z,3.70
2022-12-03T23:16:48.059Z,3.70
2022-12-03T23:19:19.952Z,3.70
2022-12-03T23:21:50.797Z,3.70
2022-12-03T23:24:21.676Z,3.70
2022-12-03T23:26:52.574Z,3.70
2022-12-03T23:29:23.442Z,3.70
2022-12-03T23:31:54.308Z,3.80
2022-12-03T23:34:25.630Z,3.70
2022-12-03T23:36:56.488Z,3.60
2022-12-03T23:39:27.357Z,3.60
2022-12-03T23:41:58.241Z,3.60
2022-12-03T23:44:29.287Z,3.60
2022-12-03T23:47:01.028Z,3.60
2022-12-03T23:49:32.144Z,3.60
2022-12-03T23:52:06.162Z,3.60
2022-12-03T23:54:37.955Z,3.60
2022-12-03T23:57:08.812Z,3.60
2022-12-03T23:59:42.061Z,3.50
